Denis Sullivan — WDA2917 — position and weather

sailwx.info

Track history (hours):
 
Tides and Currents Weather Stations Pressure Air Temp Water Temp Dewpoint Dewpoint Depression Visibility Wind Speed Wind Dir Waves Ship Positions

Denis Sullivan (United States)

From her homeport of Discovery World in Milwaukee, the schooner offers educational day sails and private charters for people of all ages from May to September.

Ship's website: http://www.discoveryworld.org/denisSullivan.php

Owner: Discovery World Ltd., MILWAUKEE, WI. More information available from US FCC via Universal Licensing System and Coast Guard Vessel Documentation Center.

Last reported at 2016-Jul-23 08:33 UTC. Time now 2016-Jul-26 02:35 UTC.
Position N 44°42' W 086°18'.

Length 42 m.

Type: Sailing vessel. MMSI: 338327000.

Date/timePositionNaut miles runAvg speedWind from/ knotsBaromVisibWave heightAir tempDewpointWater temp
2016-Jul-23 08:33N 44°42' W 086°18'6 5.8
2016-Jul-23 07:33N 44°48' W 086°14'6 6.2
2016-Jul-23 06:33N 44°54' W 086°11'11 5.5
2016-Jul-23 04:33N 44°60' W 085°59'5 5.3
2016-Jul-23 03:33N 45°02' W 085°52'5 4.7
2016-Jul-23 02:33N 45°05' W 085°47'6 5.9
2016-Jul-23 01:33N 45°10' W 085°42'6 5.8
2016-Jul-23 00:33N 45°14' W 085°35'5 5.4
2016-Jul-22 23:33N 45°16' W 085°29'6 5.5
2016-Jul-22 22:33N 45°19' W 085°22'4 3.2
2016-Jul-22 21:23N 45°19' W 085°16'0 0.0
2016-Jul-22 20:29N 45°19' W 085°16'0 0.0
2016-Jul-22 19:11N 45°19' W 085°16'0 0.0
2016-Jul-22 18:23N 45°19' W 085°16'0 0.0
2016-Jul-22 17:28N 45°19' W 085°16'0 0.0
2016-Jul-22 16:28N 45°19' W 085°16'0 0.0
2016-Jul-22 15:28N 45°19' W 085°16'0 0.0
2016-Jul-22 14:28N 45°19' W 085°16'0 0.0
2016-Jul-22 13:28N 45°19' W 085°16'0 0.0
2016-Jul-22 12:28N 45°19' W 085°16'0 0.0
2016-Jul-22 11:22N 45°19' W 085°16'0 0.0
2016-Jul-22 10:31N 45°19' W 085°16'0 0.0
2016-Jul-22 09:28N 45°19' W 085°16'0 0.0
2016-Jul-22 08:28N 45°19' W 085°16'0 0.0
2016-Jul-22 07:28N 45°19' W 085°16'0 0.0
2016-Jul-22 04:28N 45°19' W 085°16'0 0.0
2016-Jul-22 03:28N 45°19' W 085°16'0 0.0
2016-Jul-22 02:28N 45°19' W 085°16'0 0.0
2016-Jul-22 01:28N 45°19' W 085°16'0 0.0
2016-Jul-22 00:28N 45°19' W 085°16'0 0.0
2016-Jul-21 23:28N 45°19' W 085°16'0 0.0
2016-Jul-21 22:22N 45°19' W 085°16'0 0.0
2016-Jul-21 21:28N 45°19' W 085°16'0 0.0
2016-Jul-21 20:22N 45°19' W 085°16'0 0.0
2016-Jul-21 19:28N 45°19' W 085°16'0 0.0
2016-Jul-21 18:33N 45°19' W 085°17'4 3.9
2016-Jul-21 17:33N 45°23' W 085°15'5 4.6
2016-Jul-21 16:33N 45°28' W 085°16'3 3.2
2016-Jul-21 15:33N 45°31' W 085°17'3 3.4
2016-Jul-21 14:33N 45°34' W 085°15'5 5.4
2016-Jul-21 13:33N 45°39' W 085°13'5 5.1
2016-Jul-21 12:33N 45°44' W 085°11'4 3.9
2016-Jul-21 11:33N 45°47' W 085°09'4 4.3
2016-Jul-21 10:33N 45°50' W 085°04'6 5.8
2016-Jul-21 09:33N 45°50' W 084°55'6 6.0
2016-Jul-21 08:33N 45°49' W 084°47'6 6.4
2016-Jul-21 07:33N 45°47' W 084°38'7 6.8
2016-Jul-21 06:33N 45°43' W 084°30'  
Track history (hours):
 
Tides and Currents Weather Stations Pressure Air Temp Water Temp Dewpoint Dewpoint Depression Visibility Wind Speed Wind Dir Waves Ship Positions

Denis Sullivan (United States)

From her homeport of Discovery World in Milwaukee, the schooner offers educational day sails and private charters for people of all ages from May to September.

Ship's website: http://www.discoveryworld.org/denisSullivan.php

Owner: Discovery World Ltd., MILWAUKEE, WI. More information available from US FCC via Universal Licensing System and Coast Guard Vessel Documentation Center.

Last reported at 2016-Jul-23 08:33 UTC. Time now 2016-Jul-26 02:35 UTC.
Position N 44°42' W 086°18'.

Length 42 m.

Type: Sailing vessel. MMSI: 338327000.

Date/timePositionNaut miles runAvg speedWind from/ knotsBaromVisibWave heightAir tempDewpointWater temp
2016-Jul-23 08:33N 44°42' W 086°18'6 5.8
2016-Jul-23 07:33N 44°48' W 086°14'6 6.2
2016-Jul-23 06:33N 44°54' W 086°11'11 5.5
2016-Jul-23 04:33N 44°60' W 085°59'5 5.3
2016-Jul-23 03:33N 45°02' W 085°52'5 4.7
2016-Jul-23 02:33N 45°05' W 085°47'6 5.9
2016-Jul-23 01:33N 45°10' W 085°42'6 5.8
2016-Jul-23 00:33N 45°14' W 085°35'5 5.4
2016-Jul-22 23:33N 45°16' W 085°29'6 5.5
2016-Jul-22 22:33N 45°19' W 085°22'4 3.2
2016-Jul-22 21:23N 45°19' W 085°16'0 0.0
2016-Jul-22 20:29N 45°19' W 085°16'0 0.0
2016-Jul-22 19:11N 45°19' W 085°16'0 0.0
2016-Jul-22 18:23N 45°19' W 085°16'0 0.0
2016-Jul-22 17:28N 45°19' W 085°16'0 0.0
2016-Jul-22 16:28N 45°19' W 085°16'0 0.0
2016-Jul-22 15:28N 45°19' W 085°16'0 0.0
2016-Jul-22 14:28N 45°19' W 085°16'0 0.0
2016-Jul-22 13:28N 45°19' W 085°16'0 0.0
2016-Jul-22 12:28N 45°19' W 085°16'0 0.0
2016-Jul-22 11:22N 45°19' W 085°16'0 0.0
2016-Jul-22 10:31N 45°19' W 085°16'0 0.0
2016-Jul-22 09:28N 45°19' W 085°16'0 0.0
2016-Jul-22 08:28N 45°19' W 085°16'0 0.0
2016-Jul-22 07:28N 45°19' W 085°16'0 0.0
2016-Jul-22 04:28N 45°19' W 085°16'0 0.0
2016-Jul-22 03:28N 45°19' W 085°16'0 0.0
2016-Jul-22 02:28N 45°19' W 085°16'0 0.0
2016-Jul-22 01:28N 45°19' W 085°16'0 0.0
2016-Jul-22 00:28N 45°19' W 085°16'0 0.0
2016-Jul-21 23:28N 45°19' W 085°16'0 0.0
2016-Jul-21 22:22N 45°19' W 085°16'0 0.0
2016-Jul-21 21:28N 45°19' W 085°16'0 0.0
2016-Jul-21 20:22N 45°19' W 085°16'0 0.0
2016-Jul-21 19:28N 45°19' W 085°16'0 0.0
2016-Jul-21 18:33N 45°19' W 085°17'4 3.9
2016-Jul-21 17:33N 45°23' W 085°15'5 4.6
2016-Jul-21 16:33N 45°28' W 085°16'3 3.2
2016-Jul-21 15:33N 45°31' W 085°17'3 3.4
2016-Jul-21 14:33N 45°34' W 085°15'5 5.4
2016-Jul-21 13:33N 45°39' W 085°13'5 5.1
2016-Jul-21 12:33N 45°44' W 085°11'4 3.9
2016-Jul-21 11:33N 45°47' W 085°09'4 4.3
2016-Jul-21 10:33N 45°50' W 085°04'6 5.8
2016-Jul-21 09:33N 45°50' W 084°55'6 6.0
2016-Jul-21 08:33N 45°49' W 084°47'6 6.4
2016-Jul-21 07:33N 45°47' W 084°38'7 6.8
2016-Jul-21 06:33N 45°43' W 084°30'  

Dump ship's entire track history